createdAt,value
2018-07-08T00:00:59.497Z,19.58
2018-07-08T00:01:59.425Z,19.61
2018-07-08T00:02:59.379Z,19.51
2018-07-08T00:03:59.285Z,19.59
2018-07-08T00:04:59.214Z,19.56
2018-07-08T00:05:59.143Z,19.55
2018-07-08T00:06:59.074Z,19.50
2018-07-08T00:07:59.006Z,19.46
2018-07-08T00:08:58.937Z,19.44
2018-07-08T00:09:58.864Z,19.50
2018-07-08T00:10:58.798Z,19.46
2018-07-08T00:11:58.720Z,19.41
2018-07-08T00:12:58.658Z,19.28
2018-07-08T00:13:58.579Z,19.39
2018-07-08T00:14:58.515Z,19.29
2018-07-08T00:15:58.445Z,19.31
2018-07-08T00:16:58.378Z,19.32
2018-07-08T00:17:58.301Z,19.33
2018-07-08T00:18:58.234Z,19.36
2018-07-08T00:19:58.163Z,19.37
2018-07-08T00:20:58.092Z,19.29
2018-07-08T00:21:58.020Z,19.25
2018-07-08T00:22:57.951Z,19.26
2018-07-08T00:23:57.879Z,19.21
2018-07-08T00:24:57.812Z,19.22
2018-07-08T00:25:57.739Z,19.19
2018-07-08T00:26:57.668Z,19.16
2018-07-08T00:27:57.599Z,19.14
2018-07-08T00:28:57.539Z,19.02
2018-07-08T00:29:57.458Z,18.99
2018-07-08T00:30:57.389Z,18.95
2018-07-08T00:31:57.318Z,18.99
2018-07-08T00:32:57.246Z,18.99
2018-07-08T00:33:57.173Z,19.07
2018-07-08T00:34:57.105Z,19.00
2018-07-08T00:35:57.035Z,18.95
2018-07-08T00:36:56.964Z,19.04
2018-07-08T00:37:56.893Z,18.98
2018-07-08T00:38:56.827Z,18.95
2018-07-08T00:39:56.804Z,18.95
2018-07-08T00:40:56.685Z,18.98
2018-07-08T00:41:56.613Z,18.95
2018-07-08T00:42:56.544Z,18.90
2018-07-08T00:43:56.472Z,18.90
2018-07-08T00:44:56.404Z,18.87
2018-07-08T00:45:56.332Z,18.81
2018-07-08T00:46:56.261Z,18.81
2018-07-08T00:47:56.200Z,18.85
2018-07-08T00:48:56.126Z,18.75
2018-07-08T00:49:56.048Z,18.76
2018-07-08T00:50:55.984Z,18.78
2018-07-08T00:51:55.912Z,18.81
2018-07-08T00:52:55.851Z,18.75
2018-07-08T00:53:55.769Z,18.75
2018-07-08T00:54:55.700Z,18.66
2018-07-08T00:55:55.626Z,18.78
2018-07-08T00:56:55.562Z,18.75
2018-07-08T00:57:55.484Z,18.70
2018-07-08T00:58:55.416Z,18.70
2018-07-08T00:59:55.352Z,18.63
2018-07-08T01:00:55.276Z,18.67
2018-07-08T01:01:55.205Z,18.66
2018-07-08T01:02:55.133Z,18.69
2018-07-08T01:03:55.063Z,18.67
2018-07-08T01:04:54.989Z,18.65
2018-07-08T01:05:54.927Z,18.51
2018-07-08T01:06:54.848Z,18.52
2018-07-08T01:07:54.780Z,18.57
2018-07-08T01:08:54.706Z,18.51
2018-07-08T01:09:54.640Z,18.50
2018-07-08T01:10:54.570Z,18.51
2018-07-08T01:11:54.498Z,18.42
2018-07-08T01:12:54.425Z,18.39
2018-07-08T01:13:54.359Z,18.41
2018-07-08T01:14:54.282Z,18.33
2018-07-08T01:15:54.213Z,18.37
2018-07-08T01:16:54.145Z,18.36
2018-07-08T01:17:54.075Z,18.35
2018-07-08T01:18:54.000Z,18.35
2018-07-08T01:19:53.931Z,18.33
2018-07-08T01:20:53.858Z,18.35
2018-07-08T01:21:53.791Z,18.29
2018-07-08T01:22:53.719Z,18.33
2018-07-08T01:23:53.643Z,18.37
2018-07-08T01:24:53.577Z,18.33
2018-07-08T01:25:53.506Z,18.41
2018-07-08T01:26:53.434Z,18.27
2018-07-08T01:27:53.366Z,18.29
2018-07-08T01:28:53.295Z,18.36
2018-07-08T01:29:53.225Z,18.29
2018-07-08T01:30:53.151Z,18.29
2018-07-08T01:31:53.083Z,18.32
2018-07-08T01:32:53.009Z,18.27
2018-07-08T01:33:52.938Z,18.25
2018-07-08T01:34:52.869Z,18.21
2018-07-08T01:35:52.796Z,18.25
2018-07-08T01:36:52.726Z,18.26
2018-07-08T01:37:52.655Z,18.18
2018-07-08T01:38:52.583Z,18.15
2018-07-08T01:39:52.514Z,18.18
2018-07-08T01:40:52.442Z,18.21
2018-07-08T01:41:52.369Z,18.17
2018-07-08T01:42:52.303Z,18.25
2018-07-08T01:43:52.233Z,18.18
2018-07-08T01:44:52.158Z,18.17
2018-07-08T01:45:52.088Z,18.18
2018-07-08T01:46:52.018Z,18.15
2018-07-08T01:47:51.944Z,18.12
2018-07-08T01:48:51.876Z,18.14
2018-07-08T01:49:51.807Z,18.15
2018-07-08T01:50:51.732Z,18.14
2018-07-08T01:51:51.658Z,18.03
2018-07-08T01:52:51.588Z,18.05
2018-07-08T01:53:51.522Z,18.03
2018-07-08T01:54:51.449Z,17.87
2018-07-08T01:55:51.381Z,17.86
2018-07-08T01:56:51.305Z,17.90
2018-07-08T01:57:51.236Z,17.90
2018-07-08T01:58:51.163Z,17.90
2018-07-08T01:59:51.091Z,17.87
2018-07-08T02:00:51.016Z,17.89
2018-07-08T02:01:50.958Z,17.87
2018-07-08T02:02:50.880Z,17.75
2018-07-08T02:03:50.812Z,17.90
2018-07-08T02:04:50.736Z,17.82
2018-07-08T02:05:50.667Z,17.84
2018-07-08T02:06:50.596Z,17.72
2018-07-08T02:07:50.521Z,17.75
2018-07-08T02:08:50.453Z,17.78
2018-07-08T02:09:50.380Z,17.72
2018-07-08T02:10:50.312Z,17.74
2018-07-08T02:11:50.239Z,17.68
2018-07-08T02:12:50.171Z,17.63
2018-07-08T02:13:50.099Z,17.63
2018-07-08T02:14:50.028Z,17.62
2018-07-08T02:15:49.956Z,17.52
2018-07-08T02:16:49.885Z,17.48
2018-07-08T02:17:49.814Z,17.46
2018-07-08T02:18:49.743Z,17.41
2018-07-08T02:19:49.670Z,17.31
2018-07-08T02:20:49.596Z,17.33
2018-07-08T02:21:49.525Z,17.38
2018-07-08T02:22:49.454Z,17.33
2018-07-08T02:23:49.383Z,17.30
2018-07-08T02:24:49.323Z,17.30
2018-07-08T02:25:49.240Z,17.19
2018-07-08T02:26:49.167Z,17.36
2018-07-08T02:27:49.098Z,17.30
2018-07-08T02:28:49.030Z,17.21
2018-07-08T02:29:48.956Z,17.30
2018-07-08T02:30:48.884Z,17.23
2018-07-08T02:31:48.814Z,17.23
2018-07-08T02:32:48.740Z,17.15
2018-07-08T02:33:48.672Z,17.25
2018-07-08T02:34:48.599Z,17.31
2018-07-08T02:35:48.534Z,17.23
2018-07-08T02:36:48.455Z,17.23
2018-07-08T02:37:48.385Z,17.28
2018-07-08T02:38:48.311Z,17.18
2018-07-08T02:39:48.241Z,17.14
2018-07-08T02:40:48.169Z,17.25
2018-07-08T02:41:48.097Z,17.16
2018-07-08T02:42:48.026Z,17.14
2018-07-08T02:43:47.956Z,17.08
2018-07-08T02:44:47.883Z,17.06
2018-07-08T02:45:47.812Z,17.07
2018-07-08T02:46:47.744Z,17.08
2018-07-08T02:47:47.670Z,17.06
2018-07-08T02:48:47.597Z,17.07
2018-07-08T02:49:47.528Z,16.97
2018-07-08T02:50:47.454Z,17.03
2018-07-08T02:51:47.383Z,17.00
2018-07-08T02:52:47.317Z,16.96
2018-07-08T02:53:47.240Z,17.00
2018-07-08T02:54:47.179Z,16.98
2018-07-08T02:55:47.098Z,16.93
2018-07-08T02:56:47.025Z,16.94
2018-07-08T02:57:46.952Z,16.93
2018-07-08T02:58:46.881Z,16.85
2018-07-08T02:59:46.812Z,16.83
2018-07-08T03:00:46.741Z,16.76
2018-07-08T03:01:46.667Z,16.76
2018-07-08T03:02:46.604Z,16.71
2018-07-08T03:03:46.522Z,16.68
2018-07-08T03:04:46.450Z,16.71
2018-07-08T03:05:46.381Z,16.71
2018-07-08T03:06:46.307Z,16.68
2018-07-08T03:07:46.241Z,16.67
2018-07-08T03:08:46.165Z,16.70
2018-07-08T03:09:46.094Z,16.66
2018-07-08T03:10:46.019Z,16.67
2018-07-08T03:11:45.951Z,16.75
2018-07-08T03:12:45.881Z,16.68
2018-07-08T03:13:45.805Z,16.60
2018-07-08T03:14:45.735Z,16.56
2018-07-08T03:15:45.664Z,16.56
2018-07-08T03:16:45.591Z,16.56
2018-07-08T03:17:45.523Z,16.53
2018-07-08T03:18:45.448Z,16.53
2018-07-08T03:19:45.385Z,16.43
2018-07-08T03:20:45.301Z,16.53
2018-07-08T03:21:45.233Z,16.41
2018-07-08T03:22:45.160Z,16.48
2018-07-08T03:23:45.089Z,16.46
2018-07-08T03:24:45.017Z,16.49
2018-07-08T03:25:44.944Z,16.39
2018-07-08T03:26:44.878Z,16.33
2018-07-08T03:27:44.801Z,16.39
2018-07-08T03:28:44.746Z,16.35
2018-07-08T03:29:44.654Z,16.27
2018-07-08T03:30:44.596Z,16.24
2018-07-08T03:31:44.514Z,16.25
2018-07-08T03:32:44.441Z,16.27
2018-07-08T03:33:44.363Z,16.20
2018-07-08T03:34:44.296Z,16.12
2018-07-08T03:35:44.224Z,16.15
2018-07-08T03:36:44.154Z,16.17
2018-07-08T03:37:44.082Z,16.12
2018-07-08T03:38:44.008Z,16.21
2018-07-08T03:39:43.935Z,16.04
2018-07-08T03:40:43.865Z,16.12
2018-07-08T03:41:43.798Z,16.12
2018-07-08T03:42:43.712Z,16.12
2018-07-08T03:43:43.647Z,16.01
2018-07-08T03:44:43.575Z,15.96
2018-07-08T03:45:43.503Z,15.96
2018-07-08T03:46:43.426Z,15.96
2018-07-08T03:47:43.364Z,15.96
2018-07-08T03:48:43.286Z,15.93
2018-07-08T03:49:43.209Z,15.93
2018-07-08T03:50:43.143Z,15.96
2018-07-08T03:51:43.069Z,15.87
2018-07-08T03:52:43.003Z,15.86
2018-07-08T03:53:42.924Z,15.97
2018-07-08T03:54:42.860Z,15.90
2018-07-08T03:55:42.776Z,15.90
2018-07-08T03:56:42.710Z,15.92
2018-07-08T03:57:42.637Z,15.96
2018-07-08T03:58:42.564Z,15.84
2018-07-08T03:59:42.489Z,15.80
2018-07-08T04:00:42.430Z,15.94
2018-07-08T04:01:42.349Z,15.90
2018-07-08T04:02:42.278Z,15.87
2018-07-08T04:03:42.204Z,15.86
2018-07-08T04:04:42.135Z,15.87
2018-07-08T04:05:42.066Z,15.94
2018-07-08T04:06:41.987Z,15.89
2018-07-08T04:07:41.918Z,15.96
2018-07-08T04:08:41.839Z,15.97
2018-07-08T04:09:41.769Z,15.94
2018-07-08T04:10:41.701Z,16.04
2018-07-08T04:11:41.624Z,16.01
2018-07-08T04:12:41.551Z,16.02
2018-07-08T04:13:41.489Z,16.15
2018-07-08T04:14:41.409Z,16.14
2018-07-08T04:15:41.336Z,16.21
2018-07-08T04:16:41.271Z,16.17
2018-07-08T04:17:41.194Z,16.02
2018-07-08T04:18:41.121Z,16.07
2018-07-08T04:19:41.050Z,15.96
2018-07-08T04:20:40.985Z,15.94
2018-07-08T04:21:40.910Z,15.90
2018-07-08T04:22:40.831Z,15.87
2018-07-08T04:23:40.762Z,15.87
2018-07-08T04:24:40.687Z,15.96
2018-07-08T04:25:40.614Z,15.97
2018-07-08T04:26:40.542Z,15.97
2018-07-08T04:27:40.471Z,15.92
2018-07-08T04:28:40.395Z,15.86
2018-07-08T04:29:40.327Z,15.84
2018-07-08T04:30:40.252Z,15.94
2018-07-08T04:31:40.186Z,15.93
2018-07-08T04:32:40.108Z,15.89
2018-07-08T04:33:40.043Z,15.97
2018-07-08T04:34:39.960Z,15.94
2018-07-08T04:35:39.889Z,15.94
2018-07-08T04:36:39.819Z,15.92
2018-07-08T04:37:39.749Z,16.00
2018-07-08T04:38:39.679Z,15.84
2018-07-08T04:39:39.602Z,15.87
2018-07-08T04:40:39.535Z,15.92
2018-07-08T04:41:39.457Z,15.92
2018-07-08T04:42:39.388Z,15.93
2018-07-08T04:43:39.315Z,15.83
2018-07-08T04:44:39.254Z,15.89
2018-07-08T04:45:39.171Z,15.83
2018-07-08T04:46:39.098Z,15.87
2018-07-08T04:47:39.020Z,15.97
2018-07-08T04:48:38.953Z,15.94
2018-07-08T04:49:38.880Z,15.93
2018-07-08T04:50:38.806Z,15.94
2018-07-08T04:51:38.736Z,15.94
2018-07-08T04:52:38.663Z,15.94
2018-07-08T04:53:38.595Z,16.04
2018-07-08T04:54:38.516Z,16.04
2018-07-08T04:55:38.444Z,16.12
2018-07-08T04:56:38.383Z,16.08
2018-07-08T04:57:38.309Z,16.12
2018-07-08T04:58:38.227Z,16.14
2018-07-08T04:59:38.155Z,16.17
2018-07-08T05:00:38.087Z,16.08
2018-07-08T05:01:38.012Z,16.09
2018-07-08T05:02:37.938Z,16.11
2018-07-08T05:03:37.866Z,16.02
2018-07-08T05:04:37.796Z,16.08
2018-07-08T05:05:37.724Z,16.11
2018-07-08T05:06:37.720Z,16.09
2018-07-08T05:07:37.577Z,16.01
2018-07-08T05:08:37.504Z,16.17
2018-07-08T05:09:37.445Z,16.28
2018-07-08T05:10:37.368Z,16.23
2018-07-08T05:11:37.290Z,16.28
2018-07-08T05:12:37.224Z,16.21
2018-07-08T05:13:37.147Z,16.27
2018-07-08T05:14:37.073Z,16.28
2018-07-08T05:15:37.001Z,16.24
2018-07-08T05:16:36.930Z,16.28
2018-07-08T05:17:36.858Z,16.25
2018-07-08T05:18:36.786Z,16.28
2018-07-08T05:19:36.713Z,16.27
2018-07-08T05:20:36.643Z,16.34
2018-07-08T05:21:36.572Z,16.34
2018-07-08T05:22:36.495Z,16.39
2018-07-08T05:23:36.426Z,16.34
2018-07-08T05:24:36.352Z,16.39
2018-07-08T05:25:36.279Z,16.39
2018-07-08T05:26:36.211Z,16.42
2018-07-08T05:27:36.135Z,16.46
2018-07-08T05:28:36.070Z,16.49
2018-07-08T05:29:35.992Z,16.52
2018-07-08T05:30:35.923Z,16.58
2018-07-08T05:31:35.851Z,16.56
2018-07-08T05:32:35.777Z,16.67
2018-07-08T05:33:35.706Z,16.70
2018-07-08T05:34:35.630Z,16.75
2018-07-08T05:35:35.573Z,16.67
2018-07-08T05:36:35.488Z,16.78
2018-07-08T05:37:35.420Z,16.93
2018-07-08T05:38:35.352Z,16.78
2018-07-08T05:39:35.270Z,16.79
2018-07-08T05:40:35.200Z,16.79
2018-07-08T05:41:35.131Z,16.83
2018-07-08T05:42:35.056Z,16.89
2018-07-08T05:43:34.985Z,16.89
2018-07-08T05:44:34.915Z,16.97
2018-07-08T05:45:34.840Z,16.91
2018-07-08T05:46:34.775Z,16.97
2018-07-08T05:47:34.697Z,17.04
2018-07-08T05:48:34.654Z,17.00
2018-07-08T05:49:34.553Z,17.07
2018-07-08T05:50:34.502Z,17.04
2018-07-08T05:51:34.415Z,17.07
2018-07-08T05:52:34.345Z,17.08
2018-07-08T05:53:34.268Z,17.18
2018-07-08T05:54:34.201Z,17.18
2018-07-08T05:55:34.126Z,17.25
2018-07-08T05:56:34.051Z,17.21
2018-07-08T05:57:33.981Z,17.15
2018-07-08T05:58:33.908Z,17.21
2018-07-08T05:59:33.847Z,17.14
2018-07-08T06:00:33.766Z,17.30
2018-07-08T06:01:33.698Z,17.30
2018-07-08T06:02:33.623Z,17.22
2018-07-08T06:03:33.554Z,17.26
2018-07-08T06:04:33.503Z,17.37
2018-07-08T06:05:33.404Z,17.31
2018-07-08T06:06:33.360Z,17.31
2018-07-08T06:07:33.263Z,17.40
2018-07-08T06:08:33.190Z,17.36
2018-07-08T06:09:33.121Z,17.34
2018-07-08T06:10:33.050Z,17.36
2018-07-08T06:11:32.999Z,17.40
2018-07-08T06:12:32.907Z,17.43
2018-07-08T06:13:32.833Z,17.51
2018-07-08T06:14:32.762Z,17.70
2018-07-08T06:15:32.694Z,17.66
2018-07-08T06:16:32.619Z,17.46
2018-07-08T06:17:32.549Z,17.54
2018-07-08T06:18:32.480Z,17.54
2018-07-08T06:19:32.407Z,17.68
2018-07-08T06:20:32.338Z,17.64
2018-07-08T06:21:32.268Z,17.68
2018-07-08T06:22:32.195Z,17.66
2018-07-08T06:23:32.119Z,17.62
2018-07-08T06:24:32.048Z,17.63
2018-07-08T06:25:31.979Z,17.62
2018-07-08T06:26:31.907Z,17.59
2018-07-08T06:27:31.833Z,17.68
2018-07-08T06:28:31.764Z,17.71
2018-07-08T06:29:31.692Z,17.74
2018-07-08T06:30:31.625Z,17.86
2018-07-08T06:31:31.551Z,17.81
2018-07-08T06:32:31.480Z,17.84
2018-07-08T06:33:31.408Z,17.87
2018-07-08T06:34:31.339Z,17.92
2018-07-08T06:35:31.265Z,17.90
2018-07-08T06:36:31.240Z,17.90
2018-07-08T06:37:31.126Z,17.95
2018-07-08T06:38:31.056Z,17.93
2018-07-08T06:39:30.980Z,17.81
2018-07-08T06:40:30.910Z,17.82
2018-07-08T06:41:30.843Z,17.82
2018-07-08T06:42:30.767Z,17.90
2018-07-08T06:43:30.690Z,18.03
2018-07-08T06:44:30.621Z,18.00
2018-07-08T06:45:30.605Z,18.05
2018-07-08T06:46:30.482Z,18.05
2018-07-08T06:47:30.416Z,18.18
2018-07-08T06:48:30.339Z,18.18
2018-07-08T06:49:30.268Z,18.21
2018-07-08T06:50:30.197Z,18.21
2018-07-08T06:51:30.127Z,18.20
2018-07-08T06:52:30.053Z,18.18
2018-07-08T06:53:29.984Z,18.21
2018-07-08T06:54:29.912Z,18.25
2018-07-08T06:55:29.849Z,18.25
2018-07-08T06:56:29.770Z,18.26
2018-07-08T06:57:29.706Z,18.30
2018-07-08T06:58:29.629Z,18.37
2018-07-08T06:59:29.564Z,18.35
2018-07-08T07:00:29.492Z,18.36
2018-07-08T07:01:29.415Z,18.39
2018-07-08T07:02:29.347Z,18.41
2018-07-08T07:03:29.273Z,18.47
2018-07-08T07:04:29.204Z,18.48
2018-07-08T07:05:29.132Z,18.48
2018-07-08T07:06:29.063Z,18.51
2018-07-08T07:07:28.992Z,18.51
2018-07-08T07:08:28.920Z,18.50
2018-07-08T07:09:28.848Z,18.54
2018-07-08T07:10:28.779Z,18.54
2018-07-08T07:11:28.705Z,18.51
2018-07-08T07:12:28.635Z,18.52
2018-07-08T07:13:28.571Z,18.57
2018-07-08T07:14:28.500Z,18.69
2018-07-08T07:15:28.424Z,18.78
2018-07-08T07:16:28.389Z,18.72
2018-07-08T07:17:28.308Z,18.85
2018-07-08T07:18:28.212Z,18.90
2018-07-08T07:19:28.143Z,18.90
2018-07-08T07:20:28.071Z,18.90
2018-07-08T07:21:28.000Z,18.98
2018-07-08T07:22:27.931Z,19.00
2018-07-08T07:23:27.855Z,18.88
2018-07-08T07:24:27.790Z,18.90
2018-07-08T07:25:27.715Z,18.98
2018-07-08T07:26:27.648Z,18.98
2018-07-08T07:27:27.572Z,18.87
2018-07-08T07:28:27.516Z,18.85
2018-07-08T07:29:27.441Z,18.85
2018-07-08T07:30:27.365Z,19.04
2018-07-08T07:31:27.299Z,19.04
2018-07-08T07:32:27.224Z,19.00
2018-07-08T07:33:27.153Z,19.02
2018-07-08T07:34:27.082Z,19.04
2018-07-08T07:35:27.013Z,19.06
2018-07-08T07:36:26.945Z,19.14
2018-07-08T07:37:26.969Z,19.07
2018-07-08T07:38:26.826Z,19.06
2018-07-08T07:39:26.728Z,19.08
2018-07-08T07:40:26.670Z,19.16
2018-07-08T07:41:26.593Z,19.19
2018-07-08T07:42:26.522Z,19.14
2018-07-08T07:43:26.445Z,19.22
2018-07-08T07:44:26.384Z,19.32
2018-07-08T07:45:26.326Z,19.39
2018-07-08T07:46:26.244Z,19.23
2018-07-08T07:47:26.169Z,19.13
2018-07-08T07:48:26.105Z,19.22
2018-07-08T07:49:26.029Z,19.28
2018-07-08T07:50:25.957Z,19.19
2018-07-08T07:51:25.892Z,19.31
2018-07-08T07:52:25.817Z,19.41
2018-07-08T07:53:25.753Z,19.51
2018-07-08T07:54:25.677Z,19.46
2018-07-08T07:55:25.607Z,19.54
2018-07-08T07:56:25.541Z,19.58
2018-07-08T07:57:25.470Z,19.61
2018-07-08T07:58:25.397Z,19.66
2018-07-08T07:59:25.325Z,19.78
2018-07-08T08:00:25.259Z,19.80
2018-07-08T08:01:25.188Z,19.78
2018-07-08T08:02:25.116Z,19.78
2018-07-08T08:03:25.092Z,19.83
2018-07-08T08:04:24.982Z,19.55
2018-07-08T08:05:24.905Z,19.55
2018-07-08T08:06:24.835Z,19.48
2018-07-08T08:07:24.775Z,19.51
2018-07-08T08:08:24.771Z,19.41
2018-07-08T08:09:24.627Z,19.51
2018-07-08T08:10:24.555Z,19.62
2018-07-08T08:11:24.484Z,19.88
2018-07-08T08:12:24.419Z,19.87
2018-07-08T08:13:24.340Z,20.10
2018-07-08T08:14:24.286Z,20.11
2018-07-08T08:15:24.204Z,20.13
2018-07-08T08:16:24.138Z,20.16
2018-07-08T08:17:24.067Z,20.05
2018-07-08T08:18:23.996Z,20.02
2018-07-08T08:19:23.924Z,20.16
2018-07-08T08:20:23.859Z,20.17
2018-07-08T08:21:23.790Z,20.28
2018-07-08T08:22:23.717Z,20.23
2018-07-08T08:23:23.646Z,20.42
2018-07-08T08:24:23.581Z,20.48
2018-07-08T08:25:23.509Z,20.54
2018-07-08T08:26:23.510Z,20.54
2018-07-08T08:27:23.373Z,20.57
2018-07-08T08:28:23.302Z,20.64
2018-07-08T08:29:23.232Z,20.58
2018-07-08T08:30:23.163Z,20.43
2018-07-08T08:31:23.090Z,20.51
2018-07-08T08:32:23.024Z,20.55
2018-07-08T08:33:22.953Z,20.67
2018-07-08T08:34:22.881Z,20.57
2018-07-08T08:35:22.815Z,20.59
2018-07-08T08:36:22.785Z,20.69
2018-07-08T08:37:22.677Z,20.82
2018-07-08T08:38:22.603Z,20.89
2018-07-08T08:39:22.536Z,20.97
2018-07-08T08:40:22.460Z,20.97
2018-07-08T08:41:22.397Z,20.88
2018-07-08T08:42:22.324Z,20.82
2018-07-08T08:43:22.251Z,20.85
2018-07-08T08:44:22.186Z,20.91
2018-07-08T08:45:22.118Z,20.87
2018-07-08T08:46:22.047Z,21.04
2018-07-08T08:47:21.978Z,21.19
2018-07-08T08:48:21.908Z,21.21
2018-07-08T08:49:21.839Z,21.12
2018-07-08T08:50:21.769Z,20.99
2018-07-08T08:51:21.703Z,21.16
2018-07-08T08:52:21.672Z,21.17
2018-07-08T08:53:21.563Z,21.38
2018-07-08T08:54:21.497Z,21.52
2018-07-08T08:55:21.424Z,21.53
2018-07-08T08:56:21.370Z,21.52
2018-07-08T08:57:21.288Z,21.49
2018-07-08T08:58:21.248Z,21.27
2018-07-08T08:59:21.154Z,21.40
2018-07-08T09:00:21.080Z,21.27
2018-07-08T09:01:21.031Z,21.50
2018-07-08T09:02:20.954Z,21.53
2018-07-08T09:03:20.873Z,21.54
2018-07-08T09:04:20.806Z,21.58
2018-07-08T09:05:20.738Z,21.79
2018-07-08T09:06:20.666Z,21.61
2018-07-08T09:07:20.600Z,21.58
2018-07-08T09:08:20.535Z,21.61
2018-07-08T09:09:20.465Z,21.50
2018-07-08T09:10:20.409Z,21.58
2018-07-08T09:11:20.327Z,21.80
2018-07-08T09:12:20.264Z,21.92
2018-07-08T09:13:20.199Z,21.83
2018-07-08T09:14:20.123Z,21.98
2018-07-08T09:15:20.054Z,22.03
2018-07-08T09:16:19.982Z,22.21
2018-07-08T09:17:19.994Z,22.20
2018-07-08T09:18:19.853Z,21.96
2018-07-08T09:19:19.782Z,22.00
2018-07-08T09:20:19.721Z,22.10
2018-07-08T09:21:19.651Z,22.10
2018-07-08T09:22:19.586Z,22.42
2018-07-08T09:23:19.523Z,22.46
2018-07-08T09:24:19.456Z,22.61
2018-07-08T09:25:19.397Z,22.77
2018-07-08T09:26:19.332Z,22.77
2018-07-08T09:27:19.263Z,22.97
2018-07-08T09:28:19.205Z,23.17
2018-07-08T09:29:19.213Z,23.17
2018-07-08T09:30:19.085Z,23.47
2018-07-08T09:31:19.018Z,23.60
2018-07-08T09:32:18.966Z,23.78
2018-07-08T09:33:18.896Z,23.97
2018-07-08T09:34:18.842Z,24.22
2018-07-08T09:35:18.781Z,24.43
2018-07-08T09:36:18.725Z,24.83
2018-07-08T09:37:18.655Z,24.31
2018-07-08T09:38:18.602Z,24.81
2018-07-08T09:39:18.635Z,25.06
2018-07-08T09:40:18.482Z,25.24
2018-07-08T09:41:18.417Z,25.61
2018-07-08T09:42:18.363Z,25.82
2018-07-08T09:43:18.305Z,25.40
2018-07-08T09:44:18.246Z,25.90
2018-07-08T09:45:18.188Z,26.13
2018-07-08T09:46:18.127Z,26.39
2018-07-08T09:47:18.078Z,26.75
2018-07-08T09:48:18.016Z,27.34
2018-07-08T09:49:17.956Z,27.49
2018-07-08T09:50:17.905Z,27.55
2018-07-08T09:51:17.843Z,27.87
2018-07-08T09:52:17.790Z,27.84
2018-07-08T09:53:17.726Z,27.27
2018-07-08T09:54:17.673Z,27.79
2018-07-08T09:55:17.618Z,28.11
2018-07-08T09:56:17.559Z,28.52
2018-07-08T09:57:17.503Z,28.89
2018-07-08T09:58:17.449Z,29.23
2018-07-08T09:59:17.400Z,29.65
2018-07-08T10:00:17.338Z,29.87
2018-07-08T10:01:17.278Z,30.05
2018-07-08T10:02:17.220Z,30.22
2018-07-08T10:03:17.164Z,30.05
2018-07-08T10:04:17.107Z,30.51
2018-07-08T10:05:17.054Z,30.83
2018-07-08T10:06:17.000Z,30.76
2018-07-08T10:07:16.942Z,30.53
2018-07-08T10:08:16.888Z,30.55
2018-07-08T10:09:16.837Z,31.06
2018-07-08T10:10:16.777Z,31.48
2018-07-08T10:11:16.727Z,31.48
2018-07-08T10:12:16.670Z,31.69
2018-07-08T10:13:16.614Z,31.57
2018-07-08T10:14:16.557Z,31.57
2018-07-08T10:15:16.504Z,31.91
2018-07-08T10:16:16.463Z,32.19
2018-07-08T10:17:16.515Z,32.14
2018-07-08T10:18:16.342Z,32.13
2018-07-08T10:19:16.332Z,31.62
2018-07-08T10:20:16.232Z,31.41
2018-07-08T10:21:16.178Z,31.72
2018-07-08T10:22:16.125Z,31.96
2018-07-08T10:23:16.077Z,32.01
2018-07-08T10:24:16.017Z,32.01
2018-07-08T10:25:15.975Z,32.62
2018-07-08T10:26:15.910Z,32.66
2018-07-08T10:27:15.854Z,32.82
2018-07-08T10:28:15.804Z,32.99
2018-07-08T10:29:15.755Z,33.18
2018-07-08T10:30:15.707Z,33.15
2018-07-08T10:31:15.639Z,33.06
2018-07-08T10:32:15.592Z,32.62
2018-07-08T10:33:15.549Z,32.65
2018-07-08T10:34:15.491Z,32.89
2018-07-08T10:35:15.435Z,33.23
2018-07-08T10:36:15.381Z,30.92
2018-07-08T10:37:15.323Z,30.89
2018-07-08T10:38:15.324Z,31.36
2018-07-08T10:39:15.215Z,31.20
2018-07-08T10:40:15.164Z,31.34
2018-07-08T10:41:15.114Z,30.86
2018-07-08T10:42:15.065Z,30.49
2018-07-08T10:43:15.032Z,30.55
2018-07-08T10:44:14.955Z,30.54
2018-07-08T10:45:14.905Z,29.80
2018-07-08T10:46:14.843Z,29.76
2018-07-08T10:47:14.791Z,29.76
2018-07-08T10:48:14.736Z,30.11
2018-07-08T10:49:14.682Z,29.98
2018-07-08T10:50:14.631Z,29.05
2018-07-08T10:51:14.571Z,27.44
2018-07-08T10:52:14.520Z,26.67
2018-07-08T10:53:14.459Z,26.35
2018-07-08T10:54:14.403Z,25.91
2018-07-08T10:55:14.363Z,26.43
2018-07-08T10:56:14.291Z,26.80
2018-07-08T10:57:14.229Z,27.99
2018-07-08T10:58:14.172Z,28.34
2018-07-08T10:59:14.111Z,28.22
2018-07-08T11:00:14.055Z,27.81
2018-07-08T11:01:13.998Z,28.02
2018-07-08T11:02:13.939Z,28.24
2018-07-08T11:03:13.880Z,27.93
2018-07-08T11:04:13.819Z,27.99
2018-07-08T11:05:13.757Z,27.77
2018-07-08T11:06:13.701Z,27.85
2018-07-08T11:07:13.637Z,27.60
2018-07-08T11:08:13.580Z,27.79
2018-07-08T11:09:13.518Z,27.54
2018-07-08T11:10:13.463Z,27.36
2018-07-08T11:11:13.398Z,27.41
2018-07-08T11:12:13.345Z,27.82
2018-07-08T11:13:13.276Z,27.88
2018-07-08T11:14:13.227Z,27.90
2018-07-08T11:15:13.152Z,27.70
2018-07-08T11:16:13.093Z,27.39
2018-07-08T11:17:13.032Z,27.12
2018-07-08T11:18:12.972Z,26.44
2018-07-08T11:19:12.911Z,26.50
2018-07-08T11:20:12.847Z,26.91
2018-07-08T11:21:12.800Z,27.69
2018-07-08T11:22:12.732Z,28.29
2018-07-08T11:23:12.668Z,28.33
2018-07-08T11:24:12.605Z,28.25
2018-07-08T11:25:12.541Z,28.62
2018-07-08T11:26:12.482Z,28.09
2018-07-08T11:27:12.420Z,28.76
2018-07-08T11:28:12.359Z,29.02
2018-07-08T11:29:12.298Z,29.23
2018-07-08T11:30:12.240Z,29.43
2018-07-08T11:31:12.178Z,29.14
2018-07-08T11:32:12.129Z,28.61
2018-07-08T11:33:12.061Z,29.15
2018-07-08T11:34:12.003Z,29.42
2018-07-08T11:35:11.941Z,29.58
2018-07-08T11:36:11.885Z,29.78
2018-07-08T11:37:11.824Z,29.55
2018-07-08T11:38:11.764Z,29.34
2018-07-08T11:39:11.714Z,29.04
2018-07-08T11:40:11.646Z,28.90
2018-07-08T11:41:11.594Z,28.67
2018-07-08T11:42:11.526Z,28.51
2018-07-08T11:43:11.468Z,28.18
2018-07-08T11:44:11.410Z,28.02
2018-07-08T11:45:11.353Z,27.81
2018-07-08T11:46:11.292Z,27.69
2018-07-08T11:47:11.225Z,27.69
2018-07-08T11:48:11.163Z,27.82
2018-07-08T11:49:11.109Z,27.67
2018-07-08T11:50:11.046Z,27.84
2018-07-08T11:51:10.988Z,27.81
2018-07-08T11:52:10.927Z,27.79
2018-07-08T11:53:10.863Z,27.69
2018-07-08T11:54:10.804Z,27.74
2018-07-08T11:55:10.742Z,27.54
2018-07-08T11:56:10.677Z,27.41
2018-07-08T11:57:10.621Z,26.87
2018-07-08T11:58:10.560Z,26.77
2018-07-08T11:59:10.496Z,26.63
2018-07-08T12:00:10.431Z,26.94
2018-07-08T12:01:10.370Z,27.04
2018-07-08T12:02:10.306Z,27.66
2018-07-08T12:03:10.243Z,27.74
2018-07-08T12:04:10.176Z,27.36
2018-07-08T12:05:10.175Z,27.32
2018-07-08T12:06:10.053Z,27.19
2018-07-08T12:07:09.988Z,27.04
2018-07-08T12:08:09.931Z,26.50
2018-07-08T12:09:09.862Z,26.73
2018-07-08T12:10:09.798Z,26.85
2018-07-08T12:11:09.736Z,26.87
2018-07-08T12:12:09.675Z,26.92
2018-07-08T12:13:09.608Z,26.77
2018-07-08T12:14:09.543Z,26.70
2018-07-08T12:15:09.473Z,26.62
2018-07-08T12:16:09.411Z,26.44
2018-07-08T12:17:09.372Z,26.36
2018-07-08T12:18:09.285Z,26.32
2018-07-08T12:19:09.223Z,26.39
2018-07-08T12:20:09.164Z,26.51
2018-07-08T12:21:09.139Z,26.47
2018-07-08T12:22:09.029Z,26.25
2018-07-08T12:23:08.962Z,26.32
2018-07-08T12:24:08.899Z,26.36
2018-07-08T12:25:08.835Z,26.28
2018-07-08T12:26:08.773Z,26.40
2018-07-08T12:27:08.704Z,26.58
2018-07-08T12:28:08.645Z,26.73
2018-07-08T12:29:08.574Z,26.75
2018-07-08T12:30:08.512Z,26.69
2018-07-08T12:31:08.454Z,26.62
2018-07-08T12:32:08.380Z,26.51
2018-07-08T12:33:08.316Z,26.45
2018-07-08T12:34:08.252Z,26.44
2018-07-08T12:35:08.185Z,26.47
2018-07-08T12:36:08.114Z,26.47
2018-07-08T12:37:08.056Z,26.54
2018-07-08T12:38:07.987Z,26.52
2018-07-08T12:39:07.921Z,26.47
2018-07-08T12:40:07.865Z,26.45
2018-07-08T12:41:07.795Z,26.48
2018-07-08T12:42:07.730Z,26.28
2018-07-08T12:43:07.665Z,26.21
2018-07-08T12:44:07.650Z,26.30
2018-07-08T12:45:07.539Z,26.32
2018-07-08T12:46:07.463Z,26.29
2018-07-08T12:47:07.440Z,26.10
2018-07-08T12:48:07.334Z,26.07
2018-07-08T12:49:07.269Z,25.99
2018-07-08T12:50:07.200Z,26.12
2018-07-08T12:51:07.139Z,26.12
2018-07-08T12:52:07.069Z,26.25